createdAt,value
2018-05-13T00:00:53.993Z,994.37
2018-05-13T00:01:53.914Z,994.37
2018-05-13T00:02:53.840Z,994.36
2018-05-13T00:03:53.811Z,994.32
2018-05-13T00:04:53.713Z,994.29
2018-05-13T00:05:53.648Z,994.26
2018-05-13T00:06:53.572Z,994.27
2018-05-13T00:07:53.510Z,994.30
2018-05-13T00:08:53.437Z,994.25
2018-05-13T00:09:53.374Z,994.32
2018-05-13T00:10:53.312Z,994.37
2018-05-13T00:11:53.237Z,994.34
2018-05-13T00:12:53.166Z,994.36
2018-05-13T00:13:53.079Z,994.35
2018-05-13T00:14:53.036Z,994.30
2018-05-13T00:15:52.962Z,994.33
2018-05-13T00:16:52.882Z,994.36
2018-05-13T00:17:52.821Z,994.38
2018-05-13T00:18:52.750Z,994.35
2018-05-13T00:19:52.685Z,994.35
2018-05-13T00:20:52.611Z,994.34
2018-05-13T00:21:52.550Z,994.32
2018-05-13T00:22:52.483Z,994.29
2018-05-13T00:23:52.418Z,994.37
2018-05-13T00:24:52.330Z,994.25
2018-05-13T00:25:52.279Z,994.27
2018-05-13T00:26:52.200Z,994.29
2018-05-13T00:27:52.128Z,994.29
2018-05-13T00:28:52.085Z,994.29
2018-05-13T00:29:52.008Z,994.30
2018-05-13T00:30:51.931Z,994.33
2018-05-13T00:31:51.862Z,994.37
2018-05-13T00:32:51.795Z,994.33
2018-05-13T00:33:51.732Z,994.31
2018-05-13T00:34:51.669Z,994.28
2018-05-13T00:35:51.599Z,994.34
2018-05-13T00:36:51.532Z,994.32
2018-05-13T00:37:51.460Z,994.38
2018-05-13T00:38:51.388Z,994.36
2018-05-13T00:39:51.315Z,994.40
2018-05-13T00:40:51.247Z,994.37
2018-05-13T00:41:51.180Z,994.40
2018-05-13T00:42:51.112Z,994.38
2018-05-13T00:43:51.048Z,994.36
2018-05-13T00:44:50.971Z,994.38
2018-05-13T00:45:50.901Z,994.37
2018-05-13T00:46:50.829Z,994.35
2018-05-13T00:47:50.767Z,994.33
2018-05-13T00:48:50.710Z,994.32
2018-05-13T00:49:50.622Z,994.39
2018-05-13T00:50:50.560Z,994.34
2018-05-13T00:51:50.503Z,994.38
2018-05-13T00:52:50.424Z,994.37
2018-05-13T00:53:50.367Z,994.40
2018-05-13T00:54:50.288Z,994.41
2018-05-13T00:55:50.233Z,994.39
2018-05-13T00:56:50.162Z,994.47
2018-05-13T00:57:50.091Z,994.47
2018-05-13T00:58:50.028Z,994.47
2018-05-13T00:59:49.945Z,994.44
2018-05-13T01:00:49.884Z,994.52
2018-05-13T01:01:49.818Z,994.46
2018-05-13T01:02:49.806Z,994.53
2018-05-13T01:03:49.666Z,994.46
2018-05-13T01:04:49.613Z,994.47
2018-05-13T01:05:49.540Z,994.47
2018-05-13T01:06:49.467Z,994.44
2018-05-13T01:07:49.396Z,994.51
2018-05-13T01:08:49.342Z,994.45
2018-05-13T01:09:49.269Z,994.43
2018-05-13T01:10:49.182Z,994.50
2018-05-13T01:11:49.119Z,994.46
2018-05-13T01:12:49.044Z,994.39
2018-05-13T01:13:48.982Z,994.43
2018-05-13T01:14:48.928Z,994.42
2018-05-13T01:15:48.840Z,994.44
2018-05-13T01:16:48.785Z,994.44
2018-05-13T01:17:48.722Z,994.40
2018-05-13T01:18:48.647Z,994.40
2018-05-13T01:19:48.577Z,994.38
2018-05-13T01:20:48.510Z,994.33
2018-05-13T01:21:48.429Z,994.35
2018-05-13T01:22:48.365Z,994.31
2018-05-13T01:23:48.313Z,994.29
2018-05-13T01:24:48.226Z,994.32
2018-05-13T01:25:48.163Z,994.34
2018-05-13T01:26:48.103Z,994.37
2018-05-13T01:27:48.031Z,994.36
2018-05-13T01:28:47.962Z,994.29
2018-05-13T01:29:47.885Z,994.31
2018-05-13T01:30:47.819Z,994.17
2018-05-13T01:31:47.750Z,994.24
2018-05-13T01:32:47.687Z,994.17
2018-05-13T01:33:47.629Z,994.20
2018-05-13T01:34:47.550Z,994.24
2018-05-13T01:35:47.484Z,994.19
2018-05-13T01:36:47.404Z,994.25
2018-05-13T01:37:47.337Z,994.21
2018-05-13T01:38:47.279Z,994.23
2018-05-13T01:39:47.203Z,994.24
2018-05-13T01:40:47.153Z,994.24
2018-05-13T01:41:47.060Z,994.20
2018-05-13T01:42:46.989Z,994.20
2018-05-13T01:43:46.932Z,994.21
2018-05-13T01:44:46.863Z,994.21
2018-05-13T01:45:46.788Z,994.14
2018-05-13T01:46:46.738Z,994.21
2018-05-13T01:47:46.664Z,994.15
2018-05-13T01:48:46.576Z,994.16
2018-05-13T01:49:46.530Z,994.22
2018-05-13T01:50:46.449Z,994.17
2018-05-13T01:51:46.392Z,994.23
2018-05-13T01:52:46.307Z,994.20
2018-05-13T01:53:46.238Z,994.23
2018-05-13T01:54:46.172Z,994.21
2018-05-13T01:55:46.101Z,994.17
2018-05-13T01:56:46.039Z,994.20
2018-05-13T01:57:45.961Z,994.14
2018-05-13T01:58:45.907Z,994.13
2018-05-13T01:59:45.828Z,994.11
2018-05-13T02:00:45.756Z,994.12
2018-05-13T02:01:45.686Z,994.10
2018-05-13T02:02:45.619Z,994.09
2018-05-13T02:03:45.562Z,994.08
2018-05-13T02:04:45.497Z,994.06
2018-05-13T02:05:45.419Z,994.04
2018-05-13T02:06:45.347Z,994.06
2018-05-13T02:07:45.282Z,994.02
2018-05-13T02:08:45.223Z,994.01
2018-05-13T02:09:45.136Z,994.04
2018-05-13T02:10:45.072Z,993.97
2018-05-13T02:11:45.012Z,993.98
2018-05-13T02:12:44.945Z,994.03
2018-05-13T02:13:44.864Z,994.00
2018-05-13T02:14:44.795Z,994.03
2018-05-13T02:15:44.737Z,994.01
2018-05-13T02:16:44.661Z,993.96
2018-05-13T02:17:44.593Z,994.00
2018-05-13T02:18:44.520Z,994.02
2018-05-13T02:19:44.455Z,993.97
2018-05-13T02:20:44.394Z,994.02
2018-05-13T02:21:44.331Z,994.02
2018-05-13T02:22:44.254Z,994.01
2018-05-13T02:23:44.177Z,993.99
2018-05-13T02:24:44.123Z,994.01
2018-05-13T02:25:44.038Z,993.98
2018-05-13T02:26:43.975Z,993.98
2018-05-13T02:27:43.902Z,994.00
2018-05-13T02:28:43.833Z,994.00
2018-05-13T02:29:43.785Z,994.03
2018-05-13T02:30:43.697Z,993.99
2018-05-13T02:31:43.640Z,994.02
2018-05-13T02:32:43.572Z,994.06
2018-05-13T02:33:43.498Z,994.07
2018-05-13T02:34:43.414Z,994.05
2018-05-13T02:35:43.363Z,994.07
2018-05-13T02:36:43.292Z,994.04
2018-05-13T02:37:43.215Z,994.04
2018-05-13T02:38:43.142Z,994.02
2018-05-13T02:39:43.080Z,994.04
2018-05-13T02:40:43.011Z,994.09
2018-05-13T02:41:42.949Z,994.10
2018-05-13T02:42:42.904Z,994.08
2018-05-13T02:43:42.808Z,994.14
2018-05-13T02:44:42.732Z,994.13
2018-05-13T02:45:42.664Z,994.07
2018-05-13T02:46:42.632Z,994.12
2018-05-13T02:47:42.531Z,994.08
2018-05-13T02:48:42.470Z,994.08
2018-05-13T02:49:42.391Z,994.05
2018-05-13T02:50:42.313Z,994.06
2018-05-13T02:51:42.255Z,994.09
2018-05-13T02:52:42.181Z,994.05
2018-05-13T02:53:42.102Z,994.09
2018-05-13T02:54:42.040Z,994.06
2018-05-13T02:55:42.009Z,994.04
2018-05-13T02:56:41.893Z,993.99
2018-05-13T02:57:41.840Z,994.03
2018-05-13T02:58:41.774Z,994.03
2018-05-13T02:59:41.689Z,994.08
2018-05-13T03:00:41.636Z,994.03
2018-05-13T03:01:41.554Z,994.07
2018-05-13T03:02:41.489Z,994.09
2018-05-13T03:03:41.420Z,994.01
2018-05-13T03:04:41.351Z,994.05
2018-05-13T03:05:41.290Z,994.01
2018-05-13T03:06:41.217Z,993.98
2018-05-13T03:07:41.142Z,993.94
2018-05-13T03:08:41.072Z,993.98
2018-05-13T03:09:41.006Z,993.93
2018-05-13T03:10:40.945Z,993.95
2018-05-13T03:11:40.865Z,993.87
2018-05-13T03:12:40.794Z,993.95
2018-05-13T03:13:40.738Z,993.97
2018-05-13T03:14:40.656Z,994.00
2018-05-13T03:15:40.588Z,993.97
2018-05-13T03:16:40.540Z,994.04
2018-05-13T03:17:40.513Z,993.99
2018-05-13T03:18:40.385Z,994.03
2018-05-13T03:19:40.316Z,993.94
2018-05-13T03:20:40.250Z,993.95
2018-05-13T03:21:40.176Z,994.00
2018-05-13T03:22:40.112Z,993.92
2018-05-13T03:23:40.042Z,993.90
2018-05-13T03:24:39.974Z,993.90
2018-05-13T03:25:39.895Z,993.87
2018-05-13T03:26:39.848Z,993.85
2018-05-13T03:27:39.753Z,993.83
2018-05-13T03:28:39.684Z,993.90
2018-05-13T03:29:39.622Z,993.82
2018-05-13T03:30:39.553Z,993.89
2018-05-13T03:31:39.477Z,993.91
2018-05-13T03:32:39.406Z,993.89
2018-05-13T03:33:39.333Z,993.92
2018-05-13T03:34:39.278Z,993.94
2018-05-13T03:35:39.212Z,993.92
2018-05-13T03:36:39.154Z,993.90
2018-05-13T03:37:39.078Z,993.91
2018-05-13T03:38:39.005Z,993.92
2018-05-13T03:39:38.919Z,993.94
2018-05-13T03:40:38.902Z,994.00
2018-05-13T03:41:38.783Z,994.04
2018-05-13T03:42:38.716Z,994.01
2018-05-13T03:43:38.655Z,994.00
2018-05-13T03:44:38.583Z,994.00
2018-05-13T03:45:38.542Z,993.92
2018-05-13T03:46:38.435Z,993.95
2018-05-13T03:47:38.372Z,993.91
2018-05-13T03:48:38.308Z,993.94
2018-05-13T03:49:38.247Z,993.90
2018-05-13T03:50:38.161Z,993.87
2018-05-13T03:51:38.100Z,993.88
2018-05-13T03:52:38.027Z,993.80
2018-05-13T03:53:37.953Z,993.87
2018-05-13T03:54:37.892Z,993.88
2018-05-13T03:55:37.818Z,993.84
2018-05-13T03:56:37.746Z,993.94
2018-05-13T03:57:37.672Z,993.88
2018-05-13T03:58:37.609Z,993.94
2018-05-13T03:59:37.533Z,993.92
2018-05-13T04:00:37.474Z,993.93
2018-05-13T04:01:37.389Z,993.87
2018-05-13T04:02:37.319Z,993.92
2018-05-13T04:03:37.254Z,993.98
2018-05-13T04:04:37.185Z,993.98
2018-05-13T04:05:37.119Z,993.93
2018-05-13T04:06:37.054Z,993.93
2018-05-13T04:07:36.987Z,993.93
2018-05-13T04:08:36.912Z,993.94
2018-05-13T04:09:36.848Z,993.88
2018-05-13T04:10:36.778Z,993.90
2018-05-13T04:11:36.706Z,993.89
2018-05-13T04:12:36.637Z,993.87
2018-05-13T04:13:36.563Z,993.90
2018-05-13T04:14:36.510Z,993.88
2018-05-13T04:15:36.416Z,993.90
2018-05-13T04:16:36.361Z,993.86
2018-05-13T04:17:36.281Z,993.92
2018-05-13T04:18:36.219Z,993.87
2018-05-13T04:19:36.147Z,993.80
2018-05-13T04:20:36.078Z,993.86
2018-05-13T04:21:36.007Z,993.87
2018-05-13T04:22:35.930Z,993.86
2018-05-13T04:23:35.874Z,993.88
2018-05-13T04:24:35.791Z,993.85
2018-05-13T04:25:35.736Z,993.85
2018-05-13T04:26:35.655Z,993.85
2018-05-13T04:27:35.578Z,993.84
2018-05-13T04:28:35.517Z,993.81
2018-05-13T04:29:35.452Z,993.81
2018-05-13T04:30:35.383Z,993.79
2018-05-13T04:31:35.323Z,993.84
2018-05-13T04:32:35.246Z,993.82
2018-05-13T04:33:35.184Z,993.86
2018-05-13T04:34:35.097Z,993.90
2018-05-13T04:35:35.060Z,993.91
2018-05-13T04:36:34.978Z,993.91
2018-05-13T04:37:34.895Z,993.96
2018-05-13T04:38:34.823Z,993.99
2018-05-13T04:39:34.760Z,994.02
2018-05-13T04:40:34.682Z,993.97
2018-05-13T04:41:34.615Z,994.00
2018-05-13T04:42:34.543Z,994.05
2018-05-13T04:43:34.475Z,994.02
2018-05-13T04:44:34.412Z,994.01
2018-05-13T04:45:34.342Z,994.07
2018-05-13T04:46:34.284Z,994.03
2018-05-13T04:47:34.190Z,994.04
2018-05-13T04:48:34.125Z,993.99
2018-05-13T04:49:34.058Z,994.07
2018-05-13T04:50:33.989Z,994.02
2018-05-13T04:51:33.917Z,994.04
2018-05-13T04:52:33.856Z,994.06
2018-05-13T04:53:33.787Z,994.10
2018-05-13T04:54:33.724Z,994.05
2018-05-13T04:55:33.649Z,994.17
2018-05-13T04:56:33.579Z,994.14
2018-05-13T04:57:33.501Z,994.11
2018-05-13T04:58:33.426Z,994.11
2018-05-13T04:59:33.366Z,994.17
2018-05-13T05:00:33.289Z,994.17
2018-05-13T05:01:33.229Z,994.18
2018-05-13T05:02:33.158Z,994.15
2018-05-13T05:03:33.093Z,994.12
2018-05-13T05:04:33.015Z,994.15
2018-05-13T05:05:32.948Z,994.18
2018-05-13T05:06:32.882Z,994.16
2018-05-13T05:07:32.805Z,994.16
2018-05-13T05:08:32.735Z,994.19
2018-05-13T05:09:32.679Z,994.22
2018-05-13T05:10:32.590Z,994.17
2018-05-13T05:11:32.524Z,994.19
2018-05-13T05:12:32.448Z,994.17
2018-05-13T05:13:32.397Z,994.15
2018-05-13T05:14:32.337Z,994.17
2018-05-13T05:15:32.255Z,994.16
2018-05-13T05:16:32.186Z,994.19
2018-05-13T05:17:32.112Z,994.23
2018-05-13T05:18:32.054Z,994.23
2018-05-13T05:19:31.975Z,994.17
2018-05-13T05:20:31.906Z,994.18
2018-05-13T05:21:31.843Z,994.17
2018-05-13T05:22:31.753Z,994.20
2018-05-13T05:23:31.701Z,994.23
2018-05-13T05:24:31.618Z,994.23
2018-05-13T05:25:31.558Z,994.25
2018-05-13T05:26:31.485Z,994.29
2018-05-13T05:27:31.418Z,994.32
2018-05-13T05:28:31.353Z,994.38
2018-05-13T05:29:31.284Z,994.37
2018-05-13T05:30:31.214Z,994.35
2018-05-13T05:31:31.143Z,994.35
2018-05-13T05:32:31.074Z,994.41
2018-05-13T05:33:31.004Z,994.42
2018-05-13T05:34:30.924Z,994.43
2018-05-13T05:35:30.873Z,994.42
2018-05-13T05:36:30.805Z,994.39
2018-05-13T05:37:30.724Z,994.43
2018-05-13T05:38:30.659Z,994.45
2018-05-13T05:39:30.580Z,994.46
2018-05-13T05:40:30.515Z,994.48
2018-05-13T05:41:30.444Z,994.47
2018-05-13T05:42:30.376Z,994.48
2018-05-13T05:43:30.315Z,994.45
2018-05-13T05:44:30.237Z,994.47
2018-05-13T05:45:30.167Z,994.49
2018-05-13T05:46:30.111Z,994.48
2018-05-13T05:47:30.033Z,994.48
2018-05-13T05:48:30.099Z,994.48
2018-05-13T05:49:29.903Z,994.46
2018-05-13T05:50:29.818Z,994.50
2018-05-13T05:51:29.765Z,994.52
2018-05-13T05:52:29.690Z,994.46
2018-05-13T05:53:29.618Z,994.54
2018-05-13T05:54:29.551Z,994.56
2018-05-13T05:55:29.484Z,994.59
2018-05-13T05:56:29.425Z,994.60
2018-05-13T05:57:29.344Z,994.63
2018-05-13T05:58:29.321Z,994.64
2018-05-13T05:59:29.206Z,994.67
2018-05-13T06:00:29.138Z,994.67
2018-05-13T06:01:29.071Z,994.65
2018-05-13T06:02:29.027Z,994.63
2018-05-13T06:03:28.934Z,994.69
2018-05-13T06:04:28.860Z,994.68
2018-05-13T06:05:28.804Z,994.66
2018-05-13T06:06:28.731Z,994.71
2018-05-13T06:07:28.671Z,994.70
2018-05-13T06:08:28.596Z,994.68
2018-05-13T06:09:28.535Z,994.75
2018-05-13T06:10:28.461Z,994.69
2018-05-13T06:11:28.400Z,994.72
2018-05-13T06:12:28.330Z,994.72
2018-05-13T06:13:28.267Z,994.76
2018-05-13T06:14:28.192Z,994.79
2018-05-13T06:15:28.123Z,994.76
2018-05-13T06:16:28.045Z,994.85
2018-05-13T06:17:28.020Z,994.76
2018-05-13T06:18:27.922Z,994.82
2018-05-13T06:19:27.844Z,994.76
2018-05-13T06:20:27.783Z,994.80
2018-05-13T06:21:27.718Z,994.79
2018-05-13T06:22:27.649Z,994.84
2018-05-13T06:23:27.588Z,994.81
2018-05-13T06:24:27.530Z,994.88
2018-05-13T06:25:27.446Z,994.88
2018-05-13T06:26:27.387Z,994.83
2018-05-13T06:27:27.314Z,994.90
2018-05-13T06:28:27.242Z,994.85
2018-05-13T06:29:27.182Z,994.89
2018-05-13T06:30:27.120Z,994.88
2018-05-13T06:31:27.091Z,994.87
2018-05-13T06:32:26.990Z,994.89
2018-05-13T06:33:26.924Z,994.91
2018-05-13T06:34:26.848Z,994.89
2018-05-13T06:35:26.794Z,995.02
2018-05-13T06:36:26.714Z,994.98
2018-05-13T06:37:26.644Z,994.95
2018-05-13T06:38:26.574Z,994.97
2018-05-13T06:39:26.528Z,994.93
2018-05-13T06:40:26.436Z,994.99
2018-05-13T06:41:26.379Z,994.93
2018-05-13T06:42:26.312Z,995.01
2018-05-13T06:43:26.254Z,994.98
2018-05-13T06:44:26.179Z,994.97
2018-05-13T06:45:26.102Z,994.96
2018-05-13T06:46:26.053Z,995.00
2018-05-13T06:47:25.972Z,995.01
2018-05-13T06:48:25.917Z,995.00
2018-05-13T06:49:25.842Z,995.02
2018-05-13T06:50:25.775Z,995.04
2018-05-13T06:51:25.795Z,995.06
2018-05-13T06:52:25.657Z,995.04
2018-05-13T06:53:25.590Z,995.13
2018-05-13T06:54:25.527Z,995.09
2018-05-13T06:55:25.450Z,995.08
2018-05-13T06:56:25.379Z,995.09
2018-05-13T06:57:25.379Z,995.05
2018-05-13T06:58:25.256Z,995.06
2018-05-13T06:59:25.180Z,995.07
2018-05-13T07:00:25.119Z,995.06
2018-05-13T07:01:25.054Z,995.12
2018-05-13T07:02:24.989Z,995.04
2018-05-13T07:03:24.915Z,994.93
2018-05-13T07:04:24.850Z,995.04
2018-05-13T07:05:24.821Z,994.98
2018-05-13T07:06:24.991Z,994.93
2018-05-13T07:07:24.647Z,994.98
2018-05-13T07:08:24.683Z,994.94
2018-05-13T07:09:24.523Z,995.01
2018-05-13T07:10:24.462Z,995.06
2018-05-13T07:11:24.428Z,995.06
2018-05-13T07:12:24.327Z,995.03
2018-05-13T07:13:24.251Z,995.08
2018-05-13T07:14:24.198Z,995.07
2018-05-13T07:15:24.125Z,994.97
2018-05-13T07:16:24.117Z,995.04
2018-05-13T07:17:23.989Z,994.98
2018-05-13T07:18:23.919Z,995.01
2018-05-13T07:19:23.858Z,995.03
2018-05-13T07:20:23.798Z,995.04
2018-05-13T07:21:23.728Z,995.05
2018-05-13T07:22:23.661Z,995.09
2018-05-13T07:23:23.598Z,994.98
2018-05-13T07:24:23.522Z,995.06
2018-05-13T07:25:23.446Z,995.02
2018-05-13T07:26:23.400Z,995.02
2018-05-13T07:27:23.340Z,995.05
2018-05-13T07:28:23.253Z,995.06
2018-05-13T07:29:23.197Z,995.10
2018-05-13T07:30:23.129Z,995.05
2018-05-13T07:31:23.065Z,995.09
2018-05-13T07:32:22.994Z,995.16
2018-05-13T07:33:22.941Z,995.16
2018-05-13T07:34:22.872Z,995.07
2018-05-13T07:35:22.806Z,995.10
2018-05-13T07:36:22.740Z,995.13
2018-05-13T07:37:22.663Z,995.11
2018-05-13T07:38:22.590Z,995.13
2018-05-13T07:39:22.550Z,995.20
2018-05-13T07:40:22.467Z,995.17
2018-05-13T07:41:22.399Z,995.15
2018-05-13T07:42:22.341Z,995.14
2018-05-13T07:43:22.358Z,995.11
2018-05-13T07:44:22.205Z,995.18
2018-05-13T07:45:22.134Z,995.14
2018-05-13T07:46:22.079Z,995.18
2018-05-13T07:47:22.013Z,995.15
2018-05-13T07:48:21.944Z,995.25
2018-05-13T07:49:21.878Z,995.17
2018-05-13T07:50:21.799Z,995.25
2018-05-13T07:51:21.756Z,995.22
2018-05-13T07:52:21.684Z,995.20
2018-05-13T07:53:21.634Z,995.26
2018-05-13T07:54:21.552Z,995.19
2018-05-13T07:55:21.485Z,995.26
2018-05-13T07:56:21.416Z,995.18
2018-05-13T07:57:21.348Z,995.34
2018-05-13T07:58:21.292Z,995.26
2018-05-13T07:59:21.216Z,995.34
2018-05-13T08:00:21.144Z,995.28
2018-05-13T08:01:21.089Z,995.21
2018-05-13T08:02:21.030Z,995.23
2018-05-13T08:03:20.952Z,995.14
2018-05-13T08:04:20.885Z,995.24
2018-05-13T08:05:20.823Z,995.24
2018-05-13T08:06:20.761Z,995.29
2018-05-13T08:07:20.689Z,995.27
2018-05-13T08:08:20.626Z,995.26
2018-05-13T08:09:20.571Z,995.25
2018-05-13T08:10:20.493Z,995.26
2018-05-13T08:11:20.439Z,995.24
2018-05-13T08:12:20.355Z,995.24
2018-05-13T08:13:20.300Z,995.28
2018-05-13T08:14:20.234Z,995.25
2018-05-13T08:15:20.159Z,995.24
2018-05-13T08:16:20.101Z,995.21
2018-05-13T08:17:20.024Z,995.31
2018-05-13T08:18:19.959Z,995.34
2018-05-13T08:19:19.928Z,995.31
2018-05-13T08:20:19.874Z,995.29
2018-05-13T08:21:19.775Z,995.17
2018-05-13T08:22:19.702Z,995.25
2018-05-13T08:23:19.635Z,995.31
2018-05-13T08:24:19.578Z,995.23
2018-05-13T08:25:19.510Z,995.22
2018-05-13T08:26:19.446Z,995.27
2018-05-13T08:27:19.379Z,995.33
2018-05-13T08:28:19.316Z,995.30
2018-05-13T08:29:19.236Z,995.35
2018-05-13T08:30:19.168Z,995.16
2018-05-13T08:31:19.112Z,995.21
2018-05-13T08:32:19.047Z,995.24
2018-05-13T08:33:18.984Z,995.25
2018-05-13T08:34:18.917Z,995.12
2018-05-13T08:35:18.847Z,995.23
2018-05-13T08:36:18.833Z,995.30
2018-05-13T08:37:18.726Z,995.18
2018-05-13T08:38:18.645Z,995.39
2018-05-13T08:39:18.599Z,995.23
2018-05-13T08:40:18.528Z,995.28
2018-05-13T08:41:18.462Z,995.18
2018-05-13T08:42:18.413Z,995.10
2018-05-13T08:43:18.321Z,995.15
2018-05-13T08:44:18.264Z,995.04
2018-05-13T08:45:18.195Z,995.20
2018-05-13T08:46:18.138Z,995.02
2018-05-13T08:47:18.065Z,995.07
2018-05-13T08:48:17.998Z,995.15
2018-05-13T08:49:17.931Z,995.07
2018-05-13T08:50:17.862Z,995.10
2018-05-13T08:51:17.812Z,995.13
2018-05-13T08:52:17.752Z,995.07
2018-05-13T08:53:17.673Z,995.15
2018-05-13T08:54:17.607Z,995.14
2018-05-13T08:55:17.539Z,995.06
2018-05-13T08:56:17.525Z,995.16
2018-05-13T08:57:17.405Z,995.06
2018-05-13T08:58:17.340Z,995.24
2018-05-13T08:59:17.272Z,995.16
2018-05-13T09:00:17.214Z,995.16
2018-05-13T09:01:17.140Z,995.12
2018-05-13T09:02:17.113Z,995.10
2018-05-13T09:03:17.009Z,995.15
2018-05-13T09:04:16.953Z,995.15
2018-05-13T09:05:16.882Z,995.16
2018-05-13T09:06:16.823Z,995.09
2018-05-13T09:07:16.757Z,995.16
2018-05-13T09:08:16.676Z,995.12
2018-05-13T09:09:16.648Z,995.20
2018-05-13T09:10:16.554Z,995.18
2018-05-13T09:11:16.501Z,995.24
2018-05-13T09:12:16.429Z,995.27
2018-05-13T09:13:16.347Z,995.21
2018-05-13T09:14:16.372Z,995.16
2018-05-13T09:15:16.220Z,995.15
2018-05-13T09:16:16.161Z,995.24
2018-05-13T09:17:16.093Z,995.16
2018-05-13T09:18:16.037Z,995.21
2018-05-13T09:19:15.959Z,995.13
2018-05-13T09:20:15.901Z,995.22
2018-05-13T09:21:15.839Z,995.21
2018-05-13T09:22:15.771Z,995.26
2018-05-13T09:23:15.701Z,995.26
2018-05-13T09:24:15.646Z,995.29
2018-05-13T09:25:15.563Z,995.24
2018-05-13T09:26:15.499Z,995.27
2018-05-13T09:27:15.432Z,995.29
2018-05-13T09:28:15.361Z,995.30
2018-05-13T09:29:15.309Z,995.28
2018-05-13T09:30:15.245Z,995.28
2018-05-13T09:31:15.184Z,995.19
2018-05-13T09:32:15.110Z,995.19
2018-05-13T09:33:15.046Z,995.13
2018-05-13T09:34:14.988Z,995.26
2018-05-13T09:35:14.915Z,995.24
2018-05-13T09:36:14.840Z,995.14
2018-05-13T09:37:14.790Z,995.09
2018-05-13T09:38:14.731Z,995.19
2018-05-13T09:39:14.648Z,995.10
2018-05-13T09:40:14.588Z,995.11
2018-05-13T09:41:14.534Z,995.09
2018-05-13T09:42:14.458Z,995.11
2018-05-13T09:43:14.411Z,995.07
2018-05-13T09:44:14.331Z,995.16
2018-05-13T09:45:14.264Z,995.18
2018-05-13T09:46:14.197Z,995.03
2018-05-13T09:47:14.132Z,995.05
2018-05-13T09:48:14.070Z,994.95
2018-05-13T09:49:14.004Z,995.04
2018-05-13T09:50:13.946Z,995.03
2018-05-13T09:51:13.965Z,995.12
2018-05-13T09:52:13.802Z,995.15
2018-05-13T09:53:13.735Z,995.14
2018-05-13T09:54:13.673Z,995.11
2018-05-13T09:55:13.606Z,995.10
2018-05-13T09:56:13.552Z,995.05
2018-05-13T09:57:13.480Z,995.14
2018-05-13T09:58:13.423Z,995.13
2018-05-13T09:59:13.352Z,995.11
2018-05-13T10:00:13.272Z,995.15
2018-05-13T10:01:15.024Z,995.11
2018-05-13T10:02:13.160Z,995.17
2018-05-13T10:03:13.088Z,995.08
2018-05-13T10:04:13.048Z,995.11
2018-05-13T10:05:12.952Z,995.18
2018-05-13T10:06:12.884Z,995.17
2018-05-13T10:07:12.848Z,995.20
2018-05-13T10:08:12.762Z,995.16
2018-05-13T10:09:12.702Z,995.10
2018-05-13T10:10:12.631Z,995.14
2018-05-13T10:11:12.566Z,995.03
2018-05-13T10:12:12.502Z,995.06
2018-05-13T10:13:12.431Z,995.03
2018-05-13T10:14:12.370Z,995.08
2018-05-13T10:15:12.297Z,995.10
2018-05-13T10:16:12.246Z,995.08
2018-05-13T10:17:12.167Z,995.09
2018-05-13T10:18:12.110Z,995.08
2018-05-13T10:19:12.039Z,995.12
2018-05-13T10:20:11.967Z,995.08
2018-05-13T10:21:11.905Z,995.11
2018-05-13T10:22:11.838Z,995.11
2018-05-13T10:23:11.786Z,995.16
2018-05-13T10:24:11.724Z,995.12
2018-05-13T10:25:11.662Z,995.02
2018-05-13T10:26:11.588Z,995.01
2018-05-13T10:27:11.536Z,995.09
2018-05-13T10:28:11.462Z,995.17
2018-05-13T10:29:11.386Z,995.06
2018-05-13T10:30:11.326Z,994.97
2018-05-13T10:31:11.264Z,994.92
2018-05-13T10:32:11.204Z,994.93
2018-05-13T10:33:11.129Z,994.93
2018-05-13T10:34:11.063Z,994.88
2018-05-13T10:35:11.004Z,994.84
2018-05-13T10:36:10.937Z,994.76
2018-05-13T10:37:10.874Z,994.81
2018-05-13T10:38:10.808Z,994.88
2018-05-13T10:39:10.737Z,994.83
2018-05-13T10:40:10.674Z,994.84
2018-05-13T10:41:10.609Z,994.78
2018-05-13T10:42:10.539Z,994.88
2018-05-13T10:43:10.473Z,994.82
2018-05-13T10:44:10.400Z,994.79
2018-05-13T10:45:10.358Z,994.80
2018-05-13T10:46:10.272Z,994.81
2018-05-13T10:47:10.224Z,994.70
2018-05-13T10:48:10.140Z,994.80
2018-05-13T10:49:10.085Z,994.64
2018-05-13T10:50:10.032Z,994.78
2018-05-13T10:51:09.961Z,994.70
2018-05-13T10:52:09.886Z,994.66
2018-05-13T10:53:09.827Z,994.65
2018-05-13T10:54:09.761Z,994.63
2018-05-13T10:55:09.697Z,994.61
2018-05-13T10:56:09.635Z,994.65
2018-05-13T10:57:09.567Z,994.64
2018-05-13T10:58:09.492Z,994.62
2018-05-13T10:59:09.424Z,994.62
2018-05-13T11:00:09.370Z,994.58
2018-05-13T11:01:09.319Z,994.71
2018-05-13T11:02:09.243Z,994.70
2018-05-13T11:03:09.181Z,994.65
2018-05-13T11:04:09.120Z,994.61
2018-05-13T11:05:09.040Z,994.61
2018-05-13T11:06:09.005Z,994.60
2018-05-13T11:07:08.915Z,994.56
2018-05-13T11:08:08.895Z,994.46
2018-05-13T11:09:08.786Z,994.46
2018-05-13T11:10:08.788Z,994.45
2018-05-13T11:11:08.638Z,994.44
2018-05-13T11:12:08.584Z,994.45
2018-05-13T11:13:08.526Z,994.53
2018-05-13T11:14:08.463Z,994.45
2018-05-13T11:15:08.381Z,994.43
2018-05-13T11:16:08.437Z,994.36
2018-05-13T11:17:08.264Z,994.47
2018-05-13T11:18:08.210Z,994.49
2018-05-13T11:19:08.113Z,994.47
2018-05-13T11:20:08.068Z,994.34
2018-05-13T11:21:08.006Z,994.38
2018-05-13T11:22:07.932Z,994.37
2018-05-13T11:23:07.896Z,994.38
2018-05-13T11:24:07.821Z,994.37
2018-05-13T11:25:07.739Z,994.34
2018-05-13T11:26:07.664Z,994.29
2018-05-13T11:27:07.604Z,994.26
2018-05-13T11:28:07.540Z,994.31
2018-05-13T11:29:07.463Z,994.24
2018-05-13T11:30:07.403Z,994.26
2018-05-13T11:31:07.386Z,994.29
2018-05-13T11:32:07.279Z,994.24
2018-05-13T11:33:07.216Z,994.41
2018-05-13T11:34:07.144Z,994.36
2018-05-13T11:35:07.077Z,994.40
2018-05-13T11:36:07.027Z,994.26
2018-05-13T11:37:06.935Z,994.28
2018-05-13T11:38:06.873Z,994.11
2018-05-13T11:39:06.807Z,994.19
2018-05-13T11:40:06.755Z,994.23
2018-05-13T11:41:06.691Z,994.16
2018-05-13T11:42:06.627Z,994.22
2018-05-13T11:43:06.545Z,994.14
2018-05-13T11:44:06.479Z,994.11
2018-05-13T11:45:06.404Z,994.06
2018-05-13T11:46:06.349Z,994.07
2018-05-13T11:47:06.288Z,994.08
2018-05-13T11:48:06.226Z,994.16
2018-05-13T11:49:06.151Z,994.20
2018-05-13T11:50:06.093Z,994.14
2018-05-13T11:51:06.020Z,994.26
2018-05-13T11:52:05.963Z,994.17
2018-05-13T11:53:05.973Z,994.11
2018-05-13T11:54:05.891Z,994.00
2018-05-13T11:55:05.760Z,994.00
2018-05-13T11:56:05.702Z,994.04
2018-05-13T11:57:05.625Z,994.04
2018-05-13T11:58:05.555Z,993.98
2018-05-13T11:59:05.517Z,994.02
2018-05-13T12:00:05.421Z,994.09
2018-05-13T12:01:05.378Z,994.05
2018-05-13T12:02:05.325Z,993.97
2018-05-13T12:03:05.231Z,993.94
2018-05-13T12:04:05.169Z,994.00
2018-05-13T12:05:05.105Z,994.00
2018-05-13T12:06:05.054Z,993.99
2018-05-13T12:07:05.043Z,993.97
2018-05-13T12:08:04.905Z,993.90
2018-05-13T12:09:04.840Z,993.98
2018-05-13T12:10:04.769Z,994.05
2018-05-13T12:11:04.707Z,994.04
2018-05-13T12:12:04.660Z,993.94
2018-05-13T12:13:04.572Z,993.95
2018-05-13T12:14:04.520Z,993.91
2018-05-13T12:15:04.491Z,993.97
2018-05-13T12:16:04.383Z,993.85
2018-05-13T12:17:04.318Z,993.84
2018-05-13T12:18:04.251Z,993.96
2018-05-13T12:19:04.179Z,993.87
2018-05-13T12:20:04.124Z,993.81
2018-05-13T12:21:04.119Z,993.74
2018-05-13T12:22:03.990Z,993.97
2018-05-13T12:23:03.913Z,993.84
2018-05-13T12:24:03.858Z,993.80
2018-05-13T12:25:03.786Z,993.78
2018-05-13T12:26:03.729Z,993.85
2018-05-13T12:27:03.668Z,993.64
2018-05-13T12:28:03.588Z,993.76